Time;durP1;ratioP1;P1;durP2;ratioP2;P2;SDS_P1;SDS_P2;PMS_P1;PMS_P2;Temp;Humidity;BMP_temperature;BMP_pressure;BME280_temperature;BME280_humidity;BME280_pressure;Samples;Min_cycle;Max_cycle;Signal;HPM_P1;HPM_P2
2024/01/05 00:00:08;;;;;;;10.40;3.00;;;;;;;;;;485585;28;1095;-80
2024/01/05 00:00:23;;;;;;;9.20;2.85;;;;;;;;;;485978;28;890;-79
2024/01/05 00:00:39;;;;;;;10.13;2.80;;;;;;;;;;485593;28;1165;-81
2024/01/05 00:00:54;;;;;;;12.57;3.10;;;;;;;;;;485760;28;1168;-79
2024/01/05 00:01:09;;;;;;;11.20;3.20;;;;;;;;;;485857;28;1201;-80
2024/01/05 00:01:25;;;;;;;9.23;2.90;;;;;;;;;;486600;28;1067;-80
2024/01/05 00:01:42;;;;;;;8.63;2.60;;;;;;;;;;484431;28;1340;-79
2024/01/05 00:01:58;;;;;;;8.10;2.63;;;;;;;;;;484509;28;1142;-80
2024/01/05 00:02:13;;;;;;;10.23;2.85;;;;;;;;;;483829;28;1208;-79
2024/01/05 00:02:29;;;;;;;11.23;2.87;;;;;;;;;;483658;28;1318;-80
2024/01/05 00:02:44;;;;;;;11.45;2.80;;;;;;;;;;482648;28;1123;-80
2024/01/05 00:03:00;;;;;;;11.47;2.80;;;;;;;;;;482745;28;922;-79
2024/01/05 00:03:15;;;;;;;10.35;2.80;;;;;;;;;;483289;28;1347;-79
2024/01/05 00:03:31;;;;;;;9.55;2.63;;;;;;;;;;481708;28;1210;-80
2024/01/05 00:03:46;;;;;;;8.23;2.63;;;;;;;;;;482100;28;1107;-79
2024/01/05 00:04:02;;;;;;;8.93;2.80;;;;;;;;;;482856;28;998;-80
2024/01/05 00:04:18;;;;;;;10.70;2.97;;;;;;;;;;483927;28;1325;-79
2024/01/05 00:04:33;;;;;;;9.93;2.95;;;;;;;;;;485809;28;1108;-80
2024/01/05 00:04:49;;;;;;;9.13;2.90;;;;;;;;;;485750;28;1483;-82
2024/01/05 00:05:04;;;;;;;10.48;2.85;;;;;;;;;;486373;28;1042;-79
2024/01/05 00:05:20;;;;;;;9.25;2.78;;;;;;;;;;484766;28;1325;-79
2024/01/05 00:05:35;;;;;;;8.30;2.80;;;;;;;;;;485184;28;980;-79
2024/01/05 00:05:51;;;;;;;9.27;2.72;;;;;;;;;;482428;28;1263;-81
2024/01/05 00:06:07;;;;;;;9.10;2.80;;;;;;;;;;481046;28;1038;-80
2024/01/05 00:06:22;;;;;;;10.93;2.80;;;;;;;;;;481686;28;1625;-78
2024/01/05 00:06:38;;;;;;;12.00;3.00;;;;;;;;;;481051;28;930;-80
2024/01/05 00:06:53;;;;;;;11.63;3.10;;;;;;;;;;483318;28;1223;-80
2024/01/05 00:07:10;;;;;;;10.68;2.80;;;;;;;;;;484253;28;962;-80
2024/01/05 00:07:25;;;;;;;8.23;2.60;;;;;;;;;;484541;28;1425;-80
2024/01/05 00:07:41;;;;;;;7.97;2.70;;;;;;;;;;485366;28;1075;-79
2024/01/05 00:07:56;;;;;;;8.10;2.70;;;;;;;;;;487361;28;1005;-80
2024/01/05 00:08:12;;;;;;;9.90;2.78;;;;;;;;;;489627;28;978;-80
2024/01/05 00:08:27;;;;;;;11.33;2.83;;;;;;;;;;488727;28;1357;-79
2024/01/05 00:08:43;;;;;;;9.95;2.65;;;;;;;;;;489086;28;987;-78
2024/01/05 00:08:58;;;;;;;9.30;2.90;;;;;;;;;;491270;28;1051;-78
2024/01/05 00:09:14;;;;;;;9.63;2.97;;;;;;;;;;491282;28;1246;-80
2024/01/05 00:09:29;;;;;;;9.03;2.70;;;;;;;;;;490614;28;1264;-80
2024/01/05 00:09:45;;;;;;;9.30;2.70;;;;;;;;;;485518;28;1223;-80
2024/01/05 00:10:00;;;;;;;10.47;2.80;;;;;;;;;;485417;28;1052;-80
2024/01/05 00:10:16;;;;;;;10.63;2.75;;;;;;;;;;487057;28;982;-81
2024/01/05 00:10:31;;;;;;;10.17;2.70;;;;;;;;;;482467;28;1438;-81
2024/01/05 00:10:47;;;;;;;10.40;2.92;;;;;;;;;;482831;28;1012;-80
2024/01/05 00:11:03;;;;;;;10.10;2.90;;;;;;;;;;481837;28;1786;-79
2024/01/05 00:11:19;;;;;;;9.88;2.70;;;;;;;;;;483570;28;1009;-80
2024/01/05 00:11:34;;;;;;;9.63;2.65;;;;;;;;;;483034;28;1187;-81
2024/01/05 00:11:51;;;;;;;8.02;2.75;;;;;;;;;;483299;28;1010;-80
2024/01/05 00:12:07;;;;;;;9.30;2.90;;;;;;;;;;484137;28;1251;-80
2024/01/05 00:12:22;;;;;;;11.17;3.17;;;;;;;;;;483624;28;1942;-79
2024/01/05 00:12:38;;;;;;;10.60;3.25;;;;;;;;;;483848;28;1400;-80
2024/01/05 00:12:53;;;;;;;8.87;2.93;;;;;;;;;;484642;28;1182;-81
2024/01/05 00:13:09;;;;;;;8.80;2.78;;;;;;;;;;483905;28;1344;-80
2024/01/05 00:13:24;;;;;;;8.03;2.73;;;;;;;;;;484119;28;1039;-79
2024/01/05 00:13:40;;;;;;;8.98;3.05;;;;;;;;;;483726;28;1318;-78
2024/01/05 00:13:56;;;;;;;10.73;3.20;;;;;;;;;;480381;28;1185;-79
2024/01/05 00:14:11;;;;;;;11.65;2.92;;;;;;;;;;483106;28;1331;-79
2024/01/05 00:14:27;;;;;;;10.23;2.75;;;;;;;;;;482854;28;892;-79
2024/01/05 00:14:42;;;;;;;10.23;2.97;;;;;;;;;;482051;28;1042;-79
2024/01/05 00:14:58;;;;;;;11.38;3.22;;;;;;;;;;484874;28;1140;-80
2024/01/05 00:15:13;;;;;;;9.53;3.33;;;;;;;;;;482151;28;1208;-79
2024/01/05 00:15:29;;;;;;;9.82;3.28;;;;;;;;;;484576;28;1251;-79
2024/01/05 00:15:44;;;;;;;10.10;3.10;;;;;;;;;;484123;28;1305;-79
2024/01/05 00:16:00;;;;;;;9.85;2.88;;;;;;;;;;483420;28;1266;-81
2024/01/05 00:16:22;;;;;;;8.67;2.63;;;;;;;;;;485010;28;1111;-81
2024/01/05 00:16:38;;;;;;;8.98;2.83;;;;;;;;;;486919;28;921;-80
2024/01/05 00:16:55;;;;;;;9.07;3.05;;;;;;;;;;486089;28;1100;-80
2024/01/05 00:17:10;;;;;;;9.77;2.92;;;;;;;;;;487182;28;1169;-80
2024/01/05 00:17:26;;;;;;;9.10;2.70;;;;;;;;;;487613;28;1191;-80
2024/01/05 00:17:41;;;;;;;10.60;3.03;;;;;;;;;;485266;28;1549;-80
2024/01/05 00:17:57;;;;;;;11.48;3.10;;;;;;;;;;483354;28;1112;-79
2024/01/05 00:18:12;;;;;;;11.23;2.97;;;;;;;;;;483106;28;1197;-79
2024/01/05 00:18:27;;;;;;;10.30;3.00;;;;;;;;;;481324;28;1142;-79
2024/01/05 00:18:43;;;;;;;9.57;2.90;;;;;;;;;;482728;28;1150;-79
2024/01/05 00:18:59;;;;;;;10.40;2.80;;;;;;;;;;481542;28;1322;-79
2024/01/05 00:19:14;;;;;;;10.57;2.72;;;;;;;;;;483871;28;1220;-80
2024/01/05 00:19:30;;;;;;;10.27;2.90;;;;;;;;;;485448;28;939;-80
2024/01/05 00:19:45;;;;;;;10.53;2.97;;;;;;;;;;487347;28;930;-80
2024/01/05 00:20:00;;;;;;;10.90;3.00;;;;;;;;;;486850;28;1384;-79
2024/01/05 00:20:16;;;;;;;9.50;2.90;;;;;;;;;;483874;28;1068;-80
2024/01/05 00:20:32;;;;;;;8.00;2.72;;;;;;;;;;484622;28;1144;-79
2024/01/05 00:20:47;;;;;;;9.57;2.63;;;;;;;;;;483397;28;1323;-81
2024/01/05 00:21:02;;;;;;;11.63;2.97;;;;;;;;;;484030;28;1010;-80
2024/01/05 00:21:23;;;;;;;11.10;3.00;;;;;;;;;;482894;28;1127;-80
2024/01/05 00:21:38;;;;;;;10.90;3.10;;;;;;;;;;483431;28;1374;-79
2024/01/05 00:21:54;;;;;;;10.37;3.30;;;;;;;;;;484117;28;922;-78
2024/01/05 00:22:09;;;;;;;10.85;2.95;;;;;;;;;;486391;28;925;-79
2024/01/05 00:22:25;;;;;;;12.37;2.80;;;;;;;;;;485366;28;1126;-79
2024/01/05 00:22:40;;;;;;;11.05;2.90;;;;;;;;;;486404;28;1107;-79
2024/01/05 00:22:56;;;;;;;11.30;3.07;;;;;;;;;;487475;28;1119;-80
2024/01/05 00:23:11;;;;;;;10.93;3.13;;;;;;;;;;487809;28;1202;-79
2024/01/05 00:23:26;;;;;;;8.83;2.80;;;;;;;;;;486697;28;919;-79
2024/01/05 00:23:42;;;;;;;9.37;2.70;;;;;;;;;;486407;28;1147;-79
2024/01/05 00:23:57;;;;;;;11.55;3.03;;;;;;;;;;486530;28;1365;-79
2024/01/05 00:24:13;;;;;;;12.37;3.17;;;;;;;;;;486840;28;1035;-79
2024/01/05 00:24:28;;;;;;;11.15;3.05;;;;;;;;;;487095;28;984;-79
2024/01/05 00:24:44;;;;;;;9.63;2.90;;;;;;;;;;487681;28;1061;-79
2024/01/05 00:24:59;;;;;;;10.15;2.80;;;;;;;;;;483548;28;1345;-79
2024/01/05 00:25:16;;;;;;;10.50;2.90;;;;;;;;;;482707;28;1245;-80
2024/01/05 00:25:31;;;;;;;9.45;3.05;;;;;;;;;;483571;28;1252;-78
2024/01/05 00:25:47;;;;;;;9.93;3.10;;;;;;;;;;484644;28;1530;-80
2024/01/05 00:26:03;;;;;;;10.68;2.90;;;;;;;;;;484211;28;1207;-79
2024/01/05 00:26:19;;;;;;;9.98;2.80;;;;;;;;;;486610;28;1271;-80
2024/01/05 00:26:40;;;;;;;9.77;2.92;;;;;;;;;;487809;28;1207;-79
2024/01/05 00:26:55;;;;;;;8.65;2.80;;;;;;;;;;488036;28;1104;-79
2024/01/05 00:27:11;;;;;;;8.07;2.73;;;;;;;;;;488671;28;1123;-80
2024/01/05 00:27:26;;;;;;;9.40;2.85;;;;;;;;;;486296;28;1106;-80
2024/01/05 00:27:42;;;;;;;10.87;2.97;;;;;;;;;;488265;28;961;-80
2024/01/05 00:27:57;;;;;;;10.68;3.03;;;;;;;;;;485980;28;1339;-80
2024/01/05 00:28:13;;;;;;;10.23;2.97;;;;;;;;;;486077;28;961;-80
2024/01/05 00:28:28;;;;;;;10.45;2.83;;;;;;;;;;487119;28;1032;-79
2024/01/05 00:28:45;;;;;;;10.17;2.83;;;;;;;;;;488832;28;1199;-80
2024/01/05 00:29:02;;;;;;;10.70;3.03;;;;;;;;;;488404;28;1480;-80
2024/01/05 00:29:17;;;;;;;11.52;3.45;;;;;;;;;;486113;28;1141;-80
2024/01/05 00:29:33;;;;;;;11.20;3.15;;;;;;;;;;484798;28;1362;-80
2024/01/05 00:29:48;;;;;;;10.40;2.60;;;;;;;;;;485208;28;982;-80
2024/01/05 00:30:04;;;;;;;10.55;2.88;;;;;;;;;;484159;28;1328;-79
2024/01/05 00:30:20;;;;;;;9.77;3.03;;;;;;;;;;482796;28;1105;-80
2024/01/05 00:30:35;;;;;;;8.43;2.60;;;;;;;;;;482926;28;1080;-80
2024/01/05 00:30:51;;;;;;;8.30;2.67;;;;;;;;;;483819;28;1038;-79
2024/01/05 00:31:09;;;;;;;8.35;2.70;;;;;;;;;;484746;28;926;-81
2024/01/05 00:31:25;;;;;;;8.85;2.70;;;;;;;;;;483629;28;1134;-79
2024/01/05 00:31:40;;;;;;;10.75;3.00;;;;;;;;;;484871;28;1083;-79
2024/01/05 00:31:56;;;;;;;9.77;2.83;;;;;;;;;;484375;28;1279;-80
2024/01/05 00:32:11;;;;;;;8.20;2.50;;;;;;;;;;485738;28;1999;-80
2024/01/05 00:32:26;;;;;;;7.83;2.57;;;;;;;;;;482896;28;1100;-79
2024/01/05 00:32:42;;;;;;;8.80;2.85;;;;;;;;;;481656;28;1220;-80
2024/01/05 00:32:57;;;;;;;8.97;2.90;;;;;;;;;;481641;28;1074;-79
2024/01/05 00:33:12;;;;;;;8.80;2.87;;;;;;;;;;481246;28;1208;-80
2024/01/05 00:33:28;;;;;;;10.25;2.88;;;;;;;;;;484309;28;1338;-79
2024/01/05 00:33:44;;;;;;;11.07;2.90;;;;;;;;;;484030;28;1026;-80
2024/01/05 00:34:00;;;;;;;9.48;2.70;;;;;;;;;;483565;28;1055;-79
2024/01/05 00:34:16;;;;;;;7.97;2.67;;;;;;;;;;484204;28;901;-80
2024/01/05 00:34:32;;;;;;;7.77;2.70;;;;;;;;;;484013;28;1353;-80
2024/01/05 00:34:47;;;;;;;9.48;2.80;;;;;;;;;;483743;28;1090;-80
2024/01/05 00:35:03;;;;;;;11.57;3.08;;;;;;;;;;481544;28;1025;-79
2024/01/05 00:35:19;;;;;;;10.13;3.00;;;;;;;;;;482268;28;900;-80
2024/01/05 00:35:34;;;;;;;8.35;2.67;;;;;;;;;;483680;28;1177;-79
2024/01/05 00:35:49;;;;;;;9.13;2.70;;;;;;;;;;484286;28;1205;-82
2024/01/05 00:36:11;;;;;;;9.90;2.80;;;;;;;;;;484897;28;995;-79
2024/01/05 00:36:27;;;;;;;9.95;3.00;;;;;;;;;;487155;28;959;-79
2024/01/05 00:36:43;;;;;;;12.37;2.83;;;;;;;;;;487065;28;1287;-80
2024/01/05 00:36:58;;;;;;;13.18;2.95;;;;;;;;;;487761;28;1243;-79
2024/01/05 00:37:14;;;;;;;11.17;2.97;;;;;;;;;;488095;28;957;-80
2024/01/05 00:37:29;;;;;;;9.80;2.70;;;;;;;;;;487691;28;1133;-80
2024/01/05 00:37:45;;;;;;;9.65;2.80;;;;;;;;;;486125;28;1332;-78
2024/01/05 00:38:00;;;;;;;9.87;2.90;;;;;;;;;;484801;28;1350;-80
2024/01/05 00:38:16;;;;;;;9.45;2.85;;;;;;;;;;486549;28;1945;-78
2024/01/05 00:38:31;;;;;;;9.73;2.73;;;;;;;;;;484570;28;1298;-79
2024/01/05 00:38:48;;;;;;;10.30;2.85;;;;;;;;;;484174;28;1085;-80
2024/01/05 00:39:03;;;;;;;10.13;3.00;;;;;;;;;;487624;28;1169;-81
2024/01/05 00:39:19;;;;;;;9.25;2.83;;;;;;;;;;485412;28;883;-81
2024/01/05 00:39:34;;;;;;;9.00;2.73;;;;;;;;;;485579;28;1093;-80
2024/01/05 00:39:50;;;;;;;9.80;2.80;;;;;;;;;;485601;28;1124;-79
2024/01/05 00:40:06;;;;;;;9.10;2.83;;;;;;;;;;484402;28;1345;-80
2024/01/05 00:40:21;;;;;;;9.13;2.90;;;;;;;;;;484999;28;993;-82
2024/01/05 00:40:37;;;;;;;10.02;2.60;;;;;;;;;;486637;28;1210;-79
2024/01/05 00:40:52;;;;;;;9.23;2.50;;;;;;;;;;487238;28;1251;-79
2024/01/05 00:41:07;;;;;;;10.55;2.80;;;;;;;;;;486591;28;922;-79
2024/01/05 00:41:24;;;;;;;10.37;2.83;;;;;;;;;;487577;28;1019;-80
2024/01/05 00:41:40;;;;;;;11.35;3.00;;;;;;;;;;487417;28;1409;-80
2024/01/05 00:41:55;;;;;;;11.73;2.90;;;;;;;;;;487171;28;952;-80
2024/01/05 00:42:10;;;;;;;10.68;2.67;;;;;;;;;;489343;28;956;-80
2024/01/05 00:42:26;;;;;;;9.77;2.60;;;;;;;;;;488567;28;893;-79
2024/01/05 00:42:41;;;;;;;9.02;2.65;;;;;;;;;;486703;28;1151;-81
2024/01/05 00:42:57;;;;;;;9.00;2.70;;;;;;;;;;487528;28;1033;-82
2024/01/05 00:43:12;;;;;;;9.27;2.80;;;;;;;;;;488553;28;1190;-82
2024/01/05 00:43:28;;;;;;;8.57;2.67;;;;;;;;;;485884;28;1267;-80
2024/01/05 00:43:43;;;;;;;9.63;2.80;;;;;;;;;;488129;28;1534;-84
2024/01/05 00:43:59;;;;;;;10.53;3.10;;;;;;;;;;487635;28;1335;-81
2024/01/05 00:44:14;;;;;;;9.97;2.90;;;;;;;;;;488408;28;1193;-81
2024/01/05 00:44:30;;;;;;;10.10;2.85;;;;;;;;;;484702;28;1165;-80
2024/01/05 00:44:45;;;;;;;10.23;2.77;;;;;;;;;;485576;28;1074;-80
2024/01/05 00:45:01;;;;;;;11.85;2.80;;;;;;;;;;485100;28;1296;-80
2024/01/05 00:45:16;;;;;;;10.47;2.67;;;;;;;;;;487433;28;976;-80
2024/01/05 00:45:32;;;;;;;8.00;2.50;;;;;;;;;;488185;28;1189;-81
2024/01/05 00:45:47;;;;;;;8.77;2.70;;;;;;;;;;488453;28;963;-80
2024/01/05 00:46:03;;;;;;;10.27;2.75;;;;;;;;;;487654;28;1084;-79
2024/01/05 00:46:18;;;;;;;10.10;2.80;;;;;;;;;;486368;28;1032;-80
2024/01/05 00:46:37;;;;;;;7.30;2.67;;;;;;;;;;486842;28;984;-80
2024/01/05 00:46:53;;;;;;;7.57;2.55;;;;;;;;;;485822;28;1142;-79
2024/01/05 00:47:08;;;;;;;8.75;2.60;;;;;;;;;;487073;28;1160;-80
2024/01/05 00:47:24;;;;;;;8.47;2.60;;;;;;;;;;485551;28;1326;-82
2024/01/05 00:47:40;;;;;;;8.18;2.75;;;;;;;;;;485641;28;1352;-80
2024/01/05 00:47:55;;;;;;;7.67;2.70;;;;;;;;;;486041;28;1511;-81
2024/01/05 00:48:11;;;;;;;8.00;2.60;;;;;;;;;;484262;28;1390;-81
2024/01/05 00:48:26;;;;;;;9.80;2.70;;;;;;;;;;482954;28;1355;-81
2024/01/05 00:48:42;;;;;;;10.23;2.70;;;;;;;;;;482943;28;1001;-80
2024/01/05 00:48:57;;;;;;;9.80;2.80;;;;;;;;;;481661;28;1322;-79
2024/01/05 00:49:13;;;;;;;9.83;2.93;;;;;;;;;;481307;28;1006;-81
2024/01/05 00:49:28;;;;;;;12.77;2.80;;;;;;;;;;481347;28;1089;-81
2024/01/05 00:49:44;;;;;;;11.98;2.80;;;;;;;;;;482835;28;1227;-78
2024/01/05 00:49:59;;;;;;;7.87;2.70;;;;;;;;;;481586;28;1377;-80
2024/01/05 00:50:14;;;;;;;8.10;2.45;;;;;;;;;;483478;28;1084;-79
2024/01/05 00:50:30;;;;;;;9.23;2.63;;;;;;;;;;485584;28;1080;-79
2024/01/05 00:50:46;;;;;;;9.93;2.78;;;;;;;;;;483905;28;1126;-79
2024/01/05 00:51:02;;;;;;;11.88;3.00;;;;;;;;;;484350;28;1380;-80
2024/01/05 00:51:17;;;;;;;11.82;3.13;;;;;;;;;;482112;28;1231;-79
2024/01/05 00:51:33;;;;;;;9.77;2.90;;;;;;;;;;480771;28;1231;-81
2024/01/05 00:51:48;;;;;;;9.32;2.80;;;;;;;;;;481999;28;1084;-80
2024/01/05 00:52:04;;;;;;;10.83;2.83;;;;;;;;;;481074;28;1170;-80
2024/01/05 00:52:19;;;;;;;10.60;2.80;;;;;;;;;;481762;28;1946;-80
2024/01/05 00:52:35;;;;;;;8.53;2.73;;;;;;;;;;480292;28;986;-79
2024/01/05 00:52:50;;;;;;;8.65;2.70;;;;;;;;;;480811;28;1184;-79
2024/01/05 00:53:06;;;;;;;8.73;2.70;;;;;;;;;;483104;28;908;-79
2024/01/05 00:53:21;;;;;;;7.63;2.60;;;;;;;;;;484786;28;1040;-80
2024/01/05 00:53:37;;;;;;;8.33;2.67;;;;;;;;;;486756;28;1068;-80
2024/01/05 00:53:52;;;;;;;8.55;2.70;;;;;;;;;;485816;28;1083;-79
2024/01/05 00:54:08;;;;;;;8.60;2.60;;;;;;;;;;487791;28;1141;-80
2024/01/05 00:54:25;;;;;;;9.20;2.80;;;;;;;;;;488008;28;1143;-79
2024/01/05 00:54:40;;;;;;;9.65;2.95;;;;;;;;;;485331;28;1322;-80
2024/01/05 00:54:56;;;;;;;9.93;2.88;;;;;;;;;;487390;28;1056;-79
2024/01/05 00:55:12;;;;;;;10.00;3.00;;;;;;;;;;488106;28;980;-79
2024/01/05 00:55:28;;;;;;;9.50;2.80;;;;;;;;;;486855;28;1434;-80
2024/01/05 00:55:43;;;;;;;10.65;2.70;;;;;;;;;;487895;28;1120;-81
2024/01/05 00:55:59;;;;;;;10.47;2.80;;;;;;;;;;486967;28;1107;-79
2024/01/05 00:56:14;;;;;;;10.95;2.95;;;;;;;;;;487978;28;1032;-79
2024/01/05 00:56:30;;;;;;;11.13;2.80;;;;;;;;;;488118;28;1084;-80
2024/01/05 00:56:46;;;;;;;8.82;2.60;;;;;;;;;;488877;28;1123;-83
2024/01/05 00:57:01;;;;;;;8.63;2.78;;;;;;;;;;489449;28;1123;-80
2024/01/05 00:57:17;;;;;;;10.63;2.70;;;;;;;;;;490394;28;948;-79
2024/01/05 00:57:33;;;;;;;10.63;2.72;;;;;;;;;;487324;28;1052;-79
2024/01/05 00:57:48;;;;;;;10.13;2.90;;;;;;;;;;487762;28;1226;-81
2024/01/05 00:58:04;;;;;;;10.00;2.90;;;;;;;;;;488633;28;1052;-80
2024/01/05 00:58:20;;;;;;;8.57;2.70;;;;;;;;;;487661;28;1346;-81
2024/01/05 00:58:35;;;;;;;7.57;2.53;;;;;;;;;;486546;28;1044;-81
2024/01/05 00:58:51;;;;;;;9.43;2.70;;;;;;;;;;487249;28;937;-78
2024/01/05 00:59:06;;;;;;;10.18;2.80;;;;;;;;;;485491;28;1070;-80
2024/01/05 00:59:22;;;;;;;10.37;2.97;;;;;;;;;;486535;28;945;-81
2024/01/05 00:59:37;;;;;;;10.48;3.20;;;;;;;;;;487022;28;1060;-80
2024/01/05 00:59:53;;;;;;;10.03;3.13;;;;;;;;;;486833;28;1101;-79
2024/01/05 01:00:09;;;;;;;9.10;2.75;;;;;;;;;;485794;28;1202;-79
2024/01/05 01:00:25;;;;;;;9.27;2.40;;;;;;;;;;486426;28;924;-79
2024/01/05 01:00:40;;;;;;;9.68;2.53;;;;;;;;;;483778;28;1255;-79
2024/01/05 01:00:56;;;;;;;8.43;2.60;;;;;;;;;;484364;28;966;-79
2024/01/05 01:01:11;;;;;;;8.07;2.60;;;;;;;;;;484792;28;1045;-79
2024/01/05 01:01:27;;;;;;;10.90;2.90;;;;;;;;;;484933;28;1073;-79
2024/01/05 01:01:42;;;;;;;11.57;2.90;;;;;;;;;;483422;28;1251;-80
2024/01/05 01:01:58;;;;;;;10.17;2.60;;;;;;;;;;484951;28;1090;-79
2024/01/05 01:02:13;;;;;;;9.38;2.50;;;;;;;;;;484380;28;1407;-80
2024/01/05 01:02:29;;;;;;;8.67;2.67;;;;;;;;;;483926;28;1021;-79
2024/01/05 01:02:44;;;;;;;10.60;2.90;;;;;;;;;;485034;28;996;-80
2024/01/05 01:03:00;;;;;;;10.43;2.67;;;;;;;;;;483174;28;1211;-79
2024/01/05 01:03:16;;;;;;;9.95;2.65;;;;;;;;;;482513;28;903;-80
2024/01/05 01:03:31;;;;;;;9.98;2.80;;;;;;;;;;482250;28;1043;-80
2024/01/05 01:03:46;;;;;;;8.97;2.70;;;;;;;;;;482099;28;1484;-80
2024/01/05 01:04:02;;;;;;;8.57;2.75;;;;;;;;;;481485;28;1609;-79
2024/01/05 01:04:17;;;;;;;9.70;2.73;;;;;;;;;;482263;28;1030;-80
2024/01/05 01:04:33;;;;;;;11.70;3.13;;;;;;;;;;483726;28;1058;-79
2024/01/05 01:04:48;;;;;;;10.83;3.20;;;;;;;;;;482412;28;1234;-79
2024/01/05 01:05:04;;;;;;;9.88;2.85;;;;;;;;;;484360;28;1059;-79
2024/01/05 01:05:21;;;;;;;10.20;2.58;;;;;;;;;;484185;28;980;-79
2024/01/05 01:05:37;;;;;;;10.50;2.80;;;;;;;;;;483852;28;1097;-80
2024/01/05 01:05:52;;;;;;;9.00;2.72;;;;;;;;;;484905;28;1163;-80
2024/01/05 01:06:08;;;;;;;9.70;2.67;;;;;;;;;;486443;28;1319;-81
2024/01/05 01:06:23;;;;;;;11.60;3.03;;;;;;;;;;486732;28;1199;-78
2024/01/05 01:06:38;;;;;;;10.63;2.80;;;;;;;;;;486209;28;1505;-79
2024/01/05 01:06:54;;;;;;;9.63;2.63;;;;;;;;;;486492;28;1075;-81
2024/01/05 01:07:09;;;;;;;10.43;2.87;;;;;;;;;;487022;28;949;-80
2024/01/05 01:07:25;;;;;;;10.50;2.90;;;;;;;;;;486510;28;1102;-80
2024/01/05 01:07:42;;;;;;;10.13;2.70;;;;;;;;;;486302;28;1207;-79
2024/01/05 01:07:58;;;;;;;11.25;2.78;;;;;;;;;;485746;28;1001;-80
2024/01/05 01:08:14;;;;;;;9.67;2.80;;;;;;;;;;486283;28;1163;-79
2024/01/05 01:08:29;;;;;;;10.10;3.08;;;;;;;;;;485561;28;1004;-81
2024/01/05 01:08:45;;;;;;;8.73;2.90;;;;;;;;;;484152;28;1964;-79
2024/01/05 01:09:01;;;;;;;8.77;2.80;;;;;;;;;;487378;28;1246;-79
2024/01/05 01:09:16;;;;;;;10.47;2.80;;;;;;;;;;487115;28;941;-80
2024/01/05 01:09:32;;;;;;;8.07;2.50;;;;;;;;;;486648;28;937;-80
2024/01/05 01:09:47;;;;;;;7.73;2.60;;;;;;;;;;487333;28;901;-79
2024/01/05 01:10:03;;;;;;;10.68;2.80;;;;;;;;;;486171;28;1211;-79
2024/01/05 01:10:18;;;;;;;11.53;2.90;;;;;;;;;;483875;28;884;-78
2024/01/05 01:10:34;;;;;;;10.63;2.90;;;;;;;;;;482722;28;1180;-80
2024/01/05 01:10:49;;;;;;;8.90;2.80;;;;;;;;;;482389;28;1276;-80
2024/01/05 01:11:05;;;;;;;10.00;2.90;;;;;;;;;;485554;28;1058;-79
2024/01/05 01:11:22;;;;;;;9.83;2.90;;;;;;;;;;487882;28;917;-80
2024/01/05 01:11:38;;;;;;;9.88;2.85;;;;;;;;;;489292;28;1270;-81
2024/01/05 01:11:53;;;;;;;10.67;3.00;;;;;;;;;;488313;28;1069;-79
2024/01/05 01:12:08;;;;;;;9.13;2.72;;;;;;;;;;489795;28;1055;-80
2024/01/05 01:12:25;;;;;;;8.63;2.60;;;;;;;;;;488324;28;1953;-81
2024/01/05 01:12:41;;;;;;;9.35;2.83;;;;;;;;;;487601;28;1020;-80
2024/01/05 01:12:56;;;;;;;9.95;3.00;;;;;;;;;;487861;28;1173;-81
2024/01/05 01:13:12;;;;;;;9.17;2.87;;;;;;;;;;489338;28;1309;-80
2024/01/05 01:13:27;;;;;;;7.78;2.70;;;;;;;;;;487473;28;913;-80
2024/01/05 01:13:44;;;;;;;7.53;2.47;;;;;;;;;;486317;28;1049;-80
2024/01/05 01:13:59;;;;;;;9.40;2.67;;;;;;;;;;486348;28;981;-80
2024/01/05 01:14:15;;;;;;;9.90;2.90;;;;;;;;;;486681;28;976;-81
2024/01/05 01:14:30;;;;;;;9.93;2.93;;;;;;;;;;484317;28;1041;-80
2024/01/05 01:14:46;;;;;;;9.85;2.88;;;;;;;;;;484817;28;1021;-79
2024/01/05 01:15:02;;;;;;;9.10;2.80;;;;;;;;;;483906;28;1294;-80
2024/01/05 01:15:17;;;;;;;9.55;2.80;;;;;;;;;;484742;28;1098;-81
2024/01/05 01:15:33;;;;;;;10.00;2.83;;;;;;;;;;484222;28;1035;-79
2024/01/05 01:15:48;;;;;;;9.40;2.80;;;;;;;;;;486822;28;1371;-80
2024/01/05 01:16:04;;;;;;;8.63;2.78;;;;;;;;;;487011;28;1223;-80
2024/01/05 01:16:19;;;;;;;8.47;2.80;;;;;;;;;;487166;28;1145;-79
2024/01/05 01:16:35;;;;;;;8.82;3.03;;;;;;;;;;486895;28;980;-80
2024/01/05 01:16:51;;;;;;;9.23;3.10;;;;;;;;;;486954;28;1298;-80
2024/01/05 01:17:06;;;;;;;9.50;2.77;;;;;;;;;;486544;28;1496;-80
2024/01/05 01:17:22;;;;;;;8.67;2.70;;;;;;;;;;486087;28;1212;-80
2024/01/05 01:17:37;;;;;;;9.45;2.80;;;;;;;;;;486300;28;991;-80
2024/01/05 01:17:53;;;;;;;9.47;2.57;;;;;;;;;;486583;28;1111;-81
2024/01/05 01:18:08;;;;;;;8.75;2.60;;;;;;;;;;484184;28;1383;-83
2024/01/05 01:18:24;;;;;;;9.27;2.90;;;;;;;;;;485101;28;1035;-80
2024/01/05 01:18:39;;;;;;;11.50;2.93;;;;;;;;;;485060;28;1115;-80
2024/01/05 01:18:55;;;;;;;12.65;2.97;;;;;;;;;;484908;28;1451;-80
2024/01/05 01:19:10;;;;;;;10.10;2.92;;;;;;;;;;484182;28;1540;-80
2024/01/05 01:19:25;;;;;;;8.50;2.70;;;;;;;;;;482679;28;1331;-79
2024/01/05 01:19:41;;;;;;;7.77;2.60;;;;;;;;;;483162;28;1040;-80
2024/01/05 01:19:57;;;;;;;7.65;2.70;;;;;;;;;;480523;28;1271;-80
2024/01/05 01:20:12;;;;;;;8.40;2.75;;;;;;;;;;481936;28;918;-80
2024/01/05 01:20:28;;;;;;;8.10;2.67;;;;;;;;;;482190;28;835;-79
2024/01/05 01:20:43;;;;;;;8.93;2.83;;;;;;;;;;482376;28;1176;-81
2024/01/05 01:20:59;;;;;;;10.07;3.03;;;;;;;;;;482503;28;1033;-80
2024/01/05 01:21:14;;;;;;;11.38;2.90;;;;;;;;;;484550;28;1423;-80
2024/01/05 01:21:30;;;;;;;11.27;2.80;;;;;;;;;;484907;28;1216;-79
2024/01/05 01:21:45;;;;;;;8.93;2.70;;;;;;;;;;484857;28;1049;-80
2024/01/05 01:22:00;;;;;;;9.73;2.93;;;;;;;;;;487174;28;1008;-79
2024/01/05 01:22:16;;;;;;;10.17;2.97;;;;;;;;;;487532;28;934;-79
2024/01/05 01:22:31;;;;;;;8.70;2.90;;;;;;;;;;486853;28;969;-79
2024/01/05 01:22:47;;;;;;;8.40;2.87;;;;;;;;;;488644;28;1010;-79
2024/01/05 01:23:02;;;;;;;10.95;2.83;;;;;;;;;;487236;28;1116;-81
2024/01/05 01:23:18;;;;;;;12.43;3.00;;;;;;;;;;485655;28;1398;-80
2024/01/05 01:23:34;;;;;;;10.40;2.83;;;;;;;;;;484899;28;914;-80
2024/01/05 01:23:51;;;;;;;9.27;2.80;;;;;;;;;;483421;28;1327;-79
2024/01/05 01:24:06;;;;;;;9.50;2.80;;;;;;;;;;483469;28;1081;-80
2024/01/05 01:24:22;;;;;;;8.10;2.60;;;;;;;;;;483570;28;979;-80
2024/01/05 01:24:37;;;;;;;8.23;2.50;;;;;;;;;;483937;28;1102;-80
2024/01/05 01:24:53;;;;;;;11.03;2.67;;;;;;;;;;484138;28;1442;-80
2024/01/05 01:25:08;;;;;;;8.93;2.53;;;;;;;;;;483986;28;1188;-80
2024/01/05 01:25:23;;;;;;;7.70;2.60;;;;;;;;;;487176;28;1389;-80
2024/01/05 01:25:39;;;;;;;8.60;2.60;;;;;;;;;;486210;28;1132;-80
2024/01/05 01:25:57;;;;;;;8.57;2.53;;;;;;;;;;487296;28;1024;-80
2024/01/05 01:26:13;;;;;;;9.35;2.65;;;;;;;;;;487498;28;1354;-79
2024/01/05 01:26:28;;;;;;;9.40;2.70;;;;;;;;;;485731;28;1223;-80
2024/01/05 01:26:44;;;;;;;9.30;2.77;;;;;;;;;;486216;28;1060;-78
2024/01/05 01:26:59;;;;;;;10.38;2.85;;;;;;;;;;487098;28;1215;-80
2024/01/05 01:27:16;;;;;;;9.23;2.67;;;;;;;;;;487928;28;1088;-80
2024/01/05 01:27:31;;;;;;;7.43;2.50;;;;;;;;;;487324;28;1263;-79
2024/01/05 01:27:47;;;;;;;7.82;2.70;;;;;;;;;;486008;28;1084;-81
2024/01/05 01:28:03;;;;;;;8.30;2.80;;;;;;;;;;486312;28;1592;-80
2024/01/05 01:28:18;;;;;;;9.45;2.83;;;;;;;;;;487555;28;945;-80
2024/01/05 01:28:33;;;;;;;8.67;2.80;;;;;;;;;;487782;28;1263;-80
2024/01/05 01:28:49;;;;;;;9.35;2.70;;;;;;;;;;488256;28;954;-81
2024/01/05 01:29:07;;;;;;;11.15;2.83;;;;;;;;;;487137;28;944;-79
2024/01/05 01:29:24;;;;;;;10.13;2.78;;;;;;;;;;484914;28;1282;-79
2024/01/05 01:29:40;;;;;;;10.00;2.90;;;;;;;;;;486921;28;1167;-79
2024/01/05 01:29:56;;;;;;;9.23;2.78;;;;;;;;;;487004;28;1741;-80
2024/01/05 01:30:11;;;;;;;9.20;2.60;;;;;;;;;;487689;28;1347;-79
2024/01/05 01:30:27;;;;;;;9.98;2.80;;;;;;;;;;487178;28;1353;-80
2024/01/05 01:30:42;;;;;;;8.43;2.80;;;;;;;;;;486219;28;1512;-79
2024/01/05 01:30:58;;;;;;;7.30;2.55;;;;;;;;;;487254;28;1140;-79
2024/01/05 01:31:13;;;;;;;9.00;2.60;;;;;;;;;;487202;28;993;-80
2024/01/05 01:31:29;;;;;;;9.20;2.63;;;;;;;;;;487253;28;1326;-80
2024/01/05 01:31:44;;;;;;;9.57;2.63;;;;;;;;;;485817;28;1009;-79
2024/01/05 01:32:00;;;;;;;11.60;2.78;;;;;;;;;;486497;28;1289;-79
2024/01/05 01:32:15;;;;;;;10.60;2.70;;;;;;;;;;488490;28;1957;-80
2024/01/05 01:32:31;;;;;;;7.95;2.47;;;;;;;;;;487032;28;956;-81
2024/01/05 01:32:47;;;;;;;9.02;2.70;;;;;;;;;;486780;28;1371;-80
2024/01/05 01:33:02;;;;;;;10.07;2.90;;;;;;;;;;486871;28;1283;-80
2024/01/05 01:33:18;;;;;;;8.77;2.60;;;;;;;;;;489164;28;1037;-79
2024/01/05 01:33:33;;;;;;;9.20;2.70;;;;;;;;;;486642;28;1024;-79
2024/01/05 01:33:49;;;;;;;9.48;2.75;;;;;;;;;;488231;28;1092;-79
2024/01/05 01:34:04;;;;;;;8.50;2.60;;;;;;;;;;486233;28;1057;-81
2024/01/05 01:34:20;;;;;;;9.45;2.55;;;;;;;;;;486885;28;2037;-80
2024/01/05 01:34:37;;;;;;;9.30;2.67;;;;;;;;;;485868;28;1096;-80
2024/01/05 01:34:52;;;;;;;8.80;2.60;;;;;;;;;;484739;28;1192;-80
2024/01/05 01:35:08;;;;;;;9.85;2.65;;;;;;;;;;485799;28;879;-80
2024/01/05 01:35:24;;;;;;;9.07;2.70;;;;;;;;;;485756;28;1015;-81
2024/01/05 01:35:39;;;;;;;7.03;2.53;;;;;;;;;;488233;28;1383;-81
2024/01/05 01:35:55;;;;;;;7.15;2.50;;;;;;;;;;486760;28;917;-78
2024/01/05 01:36:10;;;;;;;8.37;2.40;;;;;;;;;;488194;28;1198;-80
2024/01/05 01:36:26;;;;;;;8.80;2.42;;;;;;;;;;488835;28;1082;-80
2024/01/05 01:36:41;;;;;;;8.90;2.60;;;;;;;;;;488272;28;926;-79